Latest Weather Observations for Kingaroy

IDQ60801

Issued at 4:33 pm EST Saturday 25 June 2016 (issued every 30 minutes, with the page automatically refreshed every 10 minutes)

About weather observations | Map of weather stations | Latest weather observations for QLD | Other Formats
Station Details ID: 040922 Name: KINGAROY AIRPORT Lat: -26.57 Lon: 151.84 Height: 433.67 m
Data from the previous 72 hours. | See also: Recent months at Kingaroy
Date/Time
EST
Temp
°C
App
Temp
°C
Dew
Point
°C
Rel
Hum
%
Delta-T
°C
Wind Press
QNH
hPa
Press
MSL
hPa
Rain since
9am
mm
Dir  Spd
km/h
Gust
km/h
Spd
kts
Gust
kts
25/04:30pm 13.0 7.9 -2.1 35 6.1 WSW 15 20 8 11 1018.4 1018.1 0.0
25/04:00pm 14.0 9.3 -1.6 34 6.4 W 13 20 7 11 1018.0 1017.7 0.0
25/03:30pm 14.7 10.0 -1.8 32 6.9 SW 13 19 7 10 1017.9 1017.6 0.0
25/03:00pm 14.7 10.0 -1.8 32 6.8 SW 13 20 7 11 1017.8 1017.5 0.0
25/02:30pm 15.0 9.6 -1.5 32 6.9 SSW 17 24 9 13 1017.8 1017.5 0.0
25/02:00pm 14.8 9.2 -2.6 30 7.1 SW 17 26 9 14 1017.9 1017.6 0.0
25/01:30pm 14.7 9.0 -3.6 28 7.3 S 17 26 9 14 1018.2 1017.9 0.0
25/01:00pm 14.5 8.6 -2.4 31 6.9 SSE 19 30 10 16 1018.5 1018.2 0.0
25/12:30pm 14.1 8.0 -2.3 32 6.7 S 20 30 11 16 1019.0 1018.6 0.0
25/12:00pm 13.1 7.1 -3.2 32 6.4 SSE 19 26 10 14 1019.4 1019.1 0.0
25/11:30am 13.1 7.6 -2.4 34 6.3 S 17 26 9 14 1019.8 1019.5 0.0
25/11:00am 12.7 7.7 -1.2 38 5.7 SSE 15 24 8 13 1020.0 1019.7 0.0
25/10:30am 12.2 7.2 -1.0 40 5.4 SSE 15 24 8 13 1020.1 1019.8 0.0
25/10:00am 10.9 6.5 -2.5 39 5.3 S 11 17 6 9 1020.1 1019.8 0.0
25/09:30am 10.5 5.5 -1.2 44 4.7 SSE 15 20 8 11 1020.0 1019.7 0.0
25/09:00am 9.6 3.8 -0.3 50 4.0 SSE 20 24 11 13 1019.6 1019.3 0.0
25/08:30am 8.6 3.4 0.3 56 3.4 SSE 17 24 9 13 1019.3 1018.9 0.0
25/08:00am 7.5 3.5 0.5 61 2.8 E 11 15 6 8 1019.2 1018.8 0.0
25/07:30am 6.6 2.6 0.3 64 2.5 SSE 11 17 6 9 1018.9 1018.5 0.0
25/07:00am 5.9 1.0 -0.4 64 2.5 S 15 20 8 11 1018.5 1018.2 0.0
25/06:30am 7.5 1.2 -0.7 56 3.2 SSW 22 37 12 20 1018.3 1018.0 0.0
25/06:00am 7.3 1.4 -0.6 57 3.1 SSW 20 30 11 16 1018.1 1017.8 0.0
25/05:30am 7.8 2.0 -0.2 57 3.2 SW 20 32 11 17 1017.8 1017.5 0.0
25/05:00am 8.2 1.3 0.2 57 3.3 SSW 26 39 14 21 1017.6 1017.3 0.0
25/04:30am 8.3 2.3 1.2 61 3.0 SW 22 35 12 19 1017.4 1017.1 0.0
25/04:00am 7.5 3.6 1.1 64 2.6 SSW 11 17 6 9 1017.2 1016.8 0.0
25/03:30am 8.4 2.7 0.6 58 3.2 SW 20 28 11 15 1017.1 1016.7 0.0
25/03:00am 8.7 2.9 0.2 55 3.5 SW 20 28 11 15 1017.2 1016.8 0.0
25/02:30am 9.0 3.9 1.0 57 3.3 SW 17 26 9 14 1017.5 1017.2 0.0
25/02:00am 9.0 4.8 1.7 60 3.1 SW 13 20 7 11 1017.7 1017.4 0.0
25/01:30am 10.0 5.2 2.4 59 3.3 SW 17 28 9 15 1017.8 1017.5 0.0
25/01:00am 10.5 4.8 2.8 59 3.4 SW 22 35 12 19 1017.7 1017.4 0.0
25/12:30am 11.1 3.9 3.2 58 3.5 SW 30 46 16 25 1017.4 1017.1 0.0
25/12:00am 11.3 4.9 3.3 58 3.6 SW 26 43 14 23 1017.6 1017.3 0.0
 
Date/Time
EST
Temp
°C
App
Temp
°C
Dew
Point
°C
Rel
Hum
%
Delta-T
°C
Wind Press
QNH
hPa
Press
MSL
hPa
Rain since
9am
mm
Dir  Spd
km/h
Gust
km/h
Spd
kts
Gust
kts
24/11:30pm 11.0 6.5 4.2 63 3.1 SW 17 24 9 13 1017.8 1017.5 0.0
24/11:00pm 11.7 6.7 4.7 62 3.3 SW 20 33 11 18 1017.8 1017.5 0.0
24/10:30pm 12.2 7.2 4.4 59 3.6 WSW 20 30 11 16 1017.8 1017.5 0.0
24/10:00pm 12.2 7.1 4.2 58 3.7 WSW 20 30 11 16 1017.9 1017.6 0.0
24/09:30pm 12.6 7.3 5.1 60 3.6 SW 22 32 12 17 1017.7 1017.4 0.0
24/09:00pm 12.7 8.1 5.8 63 3.3 SW 19 30 10 16 1017.5 1017.2 0.0
24/08:30pm 13.0 8.5 7.0 67 3.0 WSW 20 32 11 17 1017.1 1016.7 0.0
24/08:00pm 13.0 9.6 7.5 69 2.7 WSW 15 22 8 12 1016.7 1016.3 0.0
24/07:30pm 13.8 10.4 7.8 67 3.0 WSW 15 24 8 13 1016.2 1015.9 0.0
24/07:00pm 14.3 10.6 7.8 65 3.3 WSW 17 28 9 15 1015.9 1015.6 0.0
24/06:30pm 15.0 11.5 8.7 66 3.3 WSW 17 30 9 16 1015.5 1015.2 0.0
24/06:00pm 15.5 11.5 9.2 66 3.3 WSW 20 32 11 17 1015.2 1014.8 0.0
24/05:30pm 16.2 11.5 9.4 64 3.6 WSW 24 39 13 21 1014.7 1014.3 0.0
24/05:00pm 16.8 13.2 10.4 66 3.5 WSW 20 35 11 19 1014.2 1013.8 0.0
24/04:34pm 17.5 12.4 10.6 64 3.8 WSW 28 46 15 25 1014.0 1013.6 0.0
24/04:30pm 17.7 12.7 10.8 64 3.8 WSW 28 41 15 22 1013.8 1013.5 0.0
24/04:00pm 18.8 12.9 10.6 59 4.5 WSW 32 43 17 23 1013.3 1012.9 0.0
24/03:30pm 20.1 14.8 9.7 51 5.7 WSW 28 50 15 27 1012.7 1012.3 0.0
24/03:29pm 20.1 14.8 9.7 51 5.7 WSW 28 50 15 27 1012.7 1012.3 0.0
24/03:00pm 20.2 15.4 11.7 58 4.8 W 28 43 15 23 1012.5 1012.1 0.0
24/02:30pm 20.7 16.2 9.9 50 5.9 W 24 37 13 20 1012.0 1011.6 0.0
24/02:00pm 20.3 16.1 12.3 60 4.6 W 26 41 14 22 1012.7 1012.3 0.0
24/01:30pm 19.8 15.4 11.8 60 4.5 WNW 26 41 14 22 1012.8 1012.4 0.0
24/01:00pm 18.6 15.7 13.0 70 3.2 WNW 20 30 11 16 1013.4 1013.1 0.0
24/12:30pm 18.7 15.3 12.5 67 3.5 W 22 33 12 18 1013.5 1013.2 0.0
24/12:00pm 18.0 15.3 13.5 75 2.6 WNW 20 33 11 18 1014.4 1014.0 0.0
24/11:30am 16.7 14.3 13.8 83 1.7 W 19 26 10 14 1015.0 1014.6 0.0
24/11:00am 15.8 14.1 13.5 86 1.3 W 15 22 8 12 1015.5 1015.2 0.0
24/10:30am 15.4 13.3 13.6 89 1.0 WNW 17 24 9 13 1015.9 1015.6 0.0
24/10:00am 15.6 13.2 12.7 83 1.6 WNW 17 24 9 13 1016.0 1015.7 0.0
24/09:30am 16.3 13.6 13.0 81 1.9 W 19 30 10 16 1015.9 1015.6 0.0
24/09:00am 15.8 12.8 12.7 82 1.7 W 20 33 11 18 1015.8 1015.5 0.2
24/08:30am 15.4 13.0 12.5 83 1.6 W 17 24 9 13 1015.5 1015.2 0.2
24/08:00am 14.2 13.2 12.4 89 1.0 WNW 9 17 5 9 1015.2 1014.8 0.2
24/07:30am 13.7 13.0 12.1 90 0.9 W 7 13 4 7 1015.2 1014.8 0.2
24/07:00am 12.5 11.7 11.7 95 0.4 NW 7 9 4 5 1014.9 1014.5 0.2
24/06:30am 12.8 12.1 11.9 94 0.5 WNW 7 9 4 5 1014.6 1014.2 0.2
24/06:00am 12.6 11.8 11.7 94 0.5 NNW 7 9 4 5 1014.1 1013.7 0.0
24/05:30am 12.7 11.6 11.9 95 0.4 NNW 9 11 5 6 1013.8 1013.5 0.0
24/05:00am 12.6 11.4 11.7 94 0.5 NW 9 11 5 6 1013.7 1013.4 0.0
24/04:30am 13.2 12.5 12.1 93 0.6 W 7 9 4 5 1013.6 1013.3 0.0
24/04:00am 12.6 13.2 12.0 96 0.3 CALM 0 0 0 0 1013.2 1012.8 0.0
24/03:30am 12.3 12.7 11.4 94 0.5 CALM 0 0 0 0 1013.2 1012.8 0.0
24/03:00am 12.4 12.9 11.5 94 0.5 CALM 0 0 0 0 1013.4 1013.1 0.0
24/02:30am 12.5 11.9 11.6 94 0.5 NE 6 7 3 4 1013.3 1012.9 0.0
24/02:00am 12.6 11.7 11.5 93 0.6 S 7 11 4 6 1013.4 1013.1 0.0
24/01:30am 13.0 13.5 11.6 91 0.8 CALM 0 0 0 0 1014.0 1013.6 0.0
24/01:00am 13.4 13.9 11.6 89 1.0 CALM 0 0 0 0 1014.3 1013.9 0.0
24/12:30am 13.5 13.3 11.7 89 1.0 SSW 4 7 2 4 1014.4 1014.0 0.0
24/12:00am 13.5 13.6 11.4 87 1.1 SSW 2 9 1 5 1014.4 1014.0 0.0
 
Date/Time
EST
Temp
°C
App
Temp
°C
Dew
Point
°C
Rel
Hum
%
Delta-T
°C
Wind Press
QNH
hPa
Press
MSL
hPa
Rain since
9am
mm
Dir  Spd
km/h
Gust
km/h
Spd
kts
Gust
kts
23/11:30pm 13.6 14.0 11.1 85 1.4 CALM 0 0 0 0 1014.2 1013.8 0.0
23/11:00pm 14.0 14.3 10.8 81 1.7 CALM 0 0 0 0 1014.0 1013.6 0.0
23/10:30pm 14.6 14.1 10.8 78 2.1 ENE 4 6 2 3 1014.5 1014.1 0.0
23/10:00pm 14.8 14.3 10.6 76 2.3 NNE 4 9 2 5 1014.6 1014.2 0.0
23/09:30pm 15.1 13.7 10.9 76 2.3 E 9 13 5 7 1014.7 1014.3 0.0
23/09:00pm 15.0 14.1 11.2 78 2.1 ENE 7 13 4 7 1014.8 1014.4 0.0
23/08:30pm 14.9 14.7 11.7 81 1.8 ESE 4 7 2 4 1014.7 1014.3 0.0
23/08:00pm 14.9 15.5 11.9 82 1.7 CALM 0 0 0 0 1014.6 1014.2 0.0
23/07:30pm 15.2 14.5 11.4 78 2.1 ESE 6 7 3 4 1014.3 1013.9 0.0
23/07:00pm 15.2 15.2 11.2 77 2.2 SE 2 7 1 4 1014.4 1014.0 0.0
23/06:30pm 15.4 15.7 10.8 74 2.5 CALM 0 0 0 0 1014.2 1013.8 0.0
23/06:00pm 15.9 14.7 10.4 70 3.0 E 7 9 4 5 1013.6 1013.3 0.0
23/05:30pm 16.7 15.6 10.5 67 3.4 SE 7 9 4 5 1013.8 1013.5 0.0
23/05:00pm 17.3 16.3 10.9 66 3.5 S 7 11 4 6 1013.6 1013.3 0.0
23/04:30pm 18.1 16.6 10.7 62 4.1 SSW 9 11 5 6 1013.4 1013.1 0.0
23/04:00pm 18.7 17.0 10.0 57 4.7 SSW 9 11 5 6 1013.3 1012.9 0.0
23/03:30pm 19.3 17.6 10.0 55 5.1 WSW 9 11 5 6 1013.5 1013.2 0.0
23/03:00pm 19.4 18.1 9.9 54 5.2 SW 7 9 4 5 1012.9 1012.5 0.0
23/02:30pm 19.4 16.8 9.3 52 5.4 WNW 13 15 7 8 1013.4 1013.1 0.0
23/02:00pm 19.6 17.5 9.8 53 5.3 W 11 17 6 9 1014.1 1013.7 0.0
23/01:30pm 19.8 18.2 10.2 54 5.3 WSW 9 13 5 7 1014.1 1013.7 0.0
23/01:00pm 19.4 16.9 9.6 53 5.3 WSW 13 17 7 9 1014.3 1013.9 0.0
23/12:30pm 19.5 17.8 9.7 53 5.3 W 9 17 5 9 1015.0 1014.6 0.0
23/12:00pm 19.0 17.1 8.9 52 5.4 WSW 9 15 5 8 1015.5 1015.2 0.0
23/11:30am 19.0 17.7 10.0 56 4.9 WSW 7 13 4 7 1016.0 1015.7 0.0
23/11:00am 17.5 16.2 10.1 62 4.0 SW 7 11 4 6 1016.5 1016.1 0.0
23/10:30am 16.7 15.4 10.1 65 3.6 WNW 7 13 4 7 1016.7 1016.3 0.0
23/10:00am 16.4 14.7 10.0 66 3.4 NW 9 11 5 6 1017.2 1016.8 0.0
23/09:30am 15.3 13.9 10.9 75 2.4 N 9 11 5 6 1017.7 1017.4 0.0
23/09:00am 13.6 12.7 10.6 82 1.6 WSW 6 7 3 4 1017.8 1017.5 -
23/08:30am 12.1 12.0 10.8 92 0.7 NNE 2 9 1 5 1017.6 1017.3 -
23/08:00am 11.3 11.5 10.4 94 0.5 CALM 0 0 0 0 1017.6 1017.3 -
23/07:30am 10.8 10.9 10.0 95 0.4 CALM 0 0 0 0 1017.0 1016.6 -
23/07:00am 10.4 10.3 9.6 95 0.4 CALM 0 0 0 0 1017.0 1016.6 -
23/06:30am 10.2 10.1 9.3 94 0.5 CALM 0 6 0 3 1016.9 1016.5 -
23/06:00am 10.5 10.4 9.4 93 0.6 CALM 0 0 0 0 1016.7 1016.3 -
23/05:30am 10.7 9.9 9.6 93 0.6 S 4 6 2 3 1016.8 1016.4 -
23/05:00am 10.7 10.6 9.6 93 0.6 CALM 0 0 0 0 1016.9 1016.5 -
23/04:30am 10.7 10.6 9.6 93 0.6 CALM 0 0 0 0 1016.5 1016.1 -
23/04:00am 10.7 10.6 9.6 93 0.6 CALM 0 0 0 0 1016.2 1015.9 -
23/03:30am 10.9 10.9 9.8 93 0.6 CALM 0 0 0 0 1015.8 1015.5 -
23/03:00am 10.9 10.9 9.7 92 0.6 CALM 0 0 0 0 1015.4 1015.1 0.0
23/02:30am 11.0 11.0 9.8 92 0.6 CALM 0 0 0 0 1015.6 1015.3 -
23/02:00am 10.9 10.8 9.5 91 0.7 CALM 0 0 0 0 1015.8 1015.5 -
23/01:30am 10.9 10.8 9.5 91 0.7 CALM 0 6 0 3 1015.7 1015.4 -
23/01:00am 11.1 9.7 9.7 91 0.7 NE 7 9 4 5 1015.8 1015.5 -
23/12:30am 11.1 9.9 9.7 91 0.7 SSE 6 9 3 5 1016.6 1016.2 -
23/12:00am 11.0 11.0 9.8 92 0.6 CALM 0 0 0 0 1016.5 1016.1 -
 
Date/Time
EST
Temp
°C
App
Temp
°C
Dew
Point
°C
Rel
Hum
%
Delta-T
°C
Wind Press
QNH
hPa
Press
MSL
hPa
Rain since
9am
mm
Dir  Spd
km/h
Gust
km/h
Spd
kts
Gust
kts
22/11:30pm 10.9 10.8 9.3 90 0.8 CALM 0 0 0 0 1015.9 1015.6 -
22/11:00pm 10.8 9.6 9.4 91 0.7 NNE 6 9 3 5 1016.2 1015.9 -
22/10:30pm 10.5 9.9 8.8 89 0.9 E 2 7 1 4 1016.4 1016.0 -
22/10:00pm 10.3 9.9 8.4 88 0.9 CALM 0 0 0 0 1016.2 1015.9 -
22/09:30pm 10.4 10.0 8.3 87 1.0 CALM 0 0 0 0 1015.9 1015.6 -
22/09:00pm 10.7 10.3 8.3 85 1.2 CALM 0 0 0 0 1015.7 1015.4 0.0
22/08:30pm 11.5 10.6 7.8 78 1.8 WSW 2 6 1 3 1016.0 1015.7 -
22/08:00pm 13.0 11.2 8.1 72 2.5 NW 7 9 4 5 1015.9 1015.6 -
22/07:30pm 13.0 11.4 8.1 72 2.5 N 6 9 3 5 1015.6 1015.3 -
22/07:00pm 14.4 12.3 8.4 67 3.1 W 9 13 5 7 1015.6 1015.3 -
22/06:30pm 15.0 12.2 8.5 65 3.4 W 13 20 7 11 1015.2 1014.8 -
22/06:00pm 14.9 12.3 7.9 63 3.6 W 11 17 6 9 1015.1 1014.7 -
22/05:30pm 15.3 13.4 7.6 60 3.9 W 7 13 4 7 1014.5 1014.1 -
22/05:00pm 16.4 13.0 7.6 56 4.5 WSW 15 20 8 11 1013.8 1013.5 -

Other Formats:

Comma delimited format used in spreadsheet applications
http://www.bom.gov.au/fwo/IDQ60801/IDQ60801.94549.axf

JavaScript Object Notation format (JSON) in row-major order
http://www.bom.gov.au/fwo/IDQ60801/IDQ60801.94549.json